createdAt,value
2023-07-21T00:00:47.325Z,2.10
2023-07-21T00:10:46.070Z,1.76
2023-07-21T00:20:45.254Z,3.02
2023-07-21T00:30:46.026Z,0.84
2023-07-21T00:40:45.143Z,2.94
2023-07-21T00:50:44.238Z,2.52
2023-07-21T01:00:43.204Z,2.94
2023-07-21T01:10:42.128Z,2.52
2023-07-21T01:20:41.998Z,2.77
2023-07-21T01:30:41.558Z,2.85
2023-07-21T01:40:40.421Z,2.68
2023-07-21T01:50:40.161Z,2.43
2023-07-21T02:00:50.783Z,3.94
2023-07-21T02:10:52.150Z,2.52
2023-07-21T02:20:51.245Z,3.61
2023-07-21T02:30:50.277Z,3.44
2023-07-21T02:40:49.396Z,2.77
2023-07-21T02:50:50.380Z,2.01
2023-07-21T03:00:51.220Z,2.26
2023-07-21T03:10:52.207Z,2.60
2023-07-21T03:20:51.611Z,2.52
2023-07-21T03:30:52.296Z,3.44
2023-07-21T03:40:51.521Z,3.52
2023-07-21T03:50:50.485Z,2.68
2023-07-21T04:00:49.504Z,3.44
2023-07-21T04:10:48.444Z,3.61
2023-07-21T04:20:47.705Z,7.38
2023-07-21T04:30:49.659Z,4.03
2023-07-21T04:40:49.245Z,4.95
2023-07-21T04:50:48.713Z,4.19
2023-07-21T05:00:47.620Z,4.11
2023-07-21T05:10:48.446Z,1.68
2023-07-21T05:20:55.247Z,5.28
2023-07-21T05:30:56.481Z,5.96
2023-07-21T05:40:56.776Z,4.45
2023-07-21T05:50:56.602Z,7.72
2023-07-21T06:00:55.795Z,6.04
2023-07-21T06:10:56.495Z,6.96
2023-07-21T06:20:56.837Z,5.45
2023-07-21T06:31:14.390Z,5.87
2023-07-21T06:41:21.686Z,5.70
2023-07-21T06:51:20.732Z,5.45
2023-07-21T07:01:19.725Z,4.87
2023-07-21T07:11:18.673Z,4.70
2023-07-21T07:21:17.690Z,4.03
2023-07-21T07:31:16.654Z,3.69
2023-07-21T07:41:15.720Z,4.36
2023-07-21T07:51:14.965Z,6.04
2023-07-21T08:01:14.008Z,3.10
2023-07-21T08:11:12.769Z,4.19
2023-07-21T08:21:11.781Z,5.62
2023-07-21T08:31:10.902Z,2.68
2023-07-21T08:41:09.793Z,3.69
2023-07-21T08:51:08.916Z,2.60
2023-07-21T09:01:09.851Z,2.01
2023-07-21T09:11:08.857Z,4.11
2023-07-21T09:21:08.275Z,3.02
2023-07-21T09:31:09.530Z,2.68
2023-07-21T09:41:07.911Z,2.18
2023-07-21T09:51:08.310Z,2.18
2023-07-21T10:01:07.210Z,3.02
2023-07-21T10:11:06.013Z,2.18
2023-07-21T10:21:05.057Z,1.85
2023-07-21T10:31:04.116Z,1.17
2023-07-21T10:41:03.053Z,1.51
2023-07-21T10:51:01.964Z,0.92
2023-07-21T11:01:01.026Z,1.34
2023-07-21T11:11:00.076Z,1.01
2023-07-21T11:20:59.033Z,0.84
2023-07-21T11:30:58.098Z,0.34
2023-07-21T11:40:57.052Z,0.84
2023-07-21T11:50:56.090Z,0.08
2023-07-21T12:00:55.129Z,0.34
2023-07-21T12:10:54.113Z,0.67
2023-07-21T12:20:53.152Z,0.34
2023-07-21T12:30:52.192Z,0.59
2023-07-21T12:40:51.167Z,0.50
2023-07-21T12:50:50.169Z,1.34
2023-07-21T13:00:49.234Z,0.67
2023-07-21T13:10:48.185Z,0.92
2023-07-21T13:20:48.834Z,0.25
2023-07-21T13:30:48.244Z,0.25
2023-07-21T13:40:47.587Z,0.67
2023-07-21T13:50:46.264Z,2.26
2023-07-21T14:00:45.380Z,1.17
2023-07-21T14:10:44.310Z,1.09
2023-07-21T14:20:43.266Z,0.92
2023-07-21T14:30:42.330Z,0.50
2023-07-21T14:40:41.299Z,0.50
2023-07-21T14:50:40.393Z,0.08
2023-07-21T15:00:39.651Z,0.50
2023-07-21T15:10:38.393Z,0.42
2023-07-21T15:20:37.408Z,0.34
2023-07-21T15:30:36.518Z,1.43
2023-07-21T15:40:35.429Z,0.67
2023-07-21T15:50:34.446Z,0.42
2023-07-21T16:00:33.445Z,0.84
2023-07-21T16:10:32.523Z,1.34
2023-07-21T16:20:31.786Z,0.50
2023-07-21T16:30:30.484Z,1.09
2023-07-21T16:40:29.627Z,1.17
2023-07-21T16:50:30.433Z,1.01
2023-07-21T17:00:29.784Z,1.17
2023-07-21T17:10:28.651Z,1.09
2023-07-21T17:20:27.761Z,1.34
2023-07-21T17:30:26.615Z,0.75
2023-07-21T17:40:26.894Z,1.09
2023-07-21T17:50:25.632Z,0.84
2023-07-21T18:00:24.639Z,0.67
2023-07-21T18:10:23.644Z,3.61
2023-07-21T18:20:22.612Z,1.68
2023-07-21T18:30:21.626Z,2.94
2023-07-21T18:40:20.775Z,2.01
2023-07-21T18:50:21.034Z,2.18
2023-07-21T19:00:19.700Z,1.76
2023-07-21T19:10:18.745Z,1.85
2023-07-21T19:20:17.728Z,1.68
2023-07-21T19:30:16.846Z,1.76
2023-07-21T19:40:15.808Z,1.09
2023-07-21T19:50:17.440Z,1.34
2023-07-21T20:00:16.811Z,0.75
2023-07-21T20:10:15.935Z,1.34
2023-07-21T20:20:14.852Z,0.92
2023-07-21T20:30:13.874Z,2.01
2023-07-21T20:40:12.898Z,0.50
2023-07-21T20:50:11.907Z,2.10
2023-07-21T21:00:13.275Z,1.34
2023-07-21T21:10:11.986Z,2.01
2023-07-21T21:20:10.996Z,1.34
2023-07-21T21:30:09.979Z,0.84
2023-07-21T21:40:08.942Z,2.10
2023-07-21T21:50:07.981Z,2.10
2023-07-21T22:00:08.242Z,2.85
2023-07-21T22:10:07.009Z,2.52
2023-07-21T22:20:11.587Z,1.59
2023-07-21T22:30:08.092Z,2.60
2023-07-21T22:40:07.142Z,4.95
2023-07-21T22:50:06.286Z,3.02
2023-07-21T23:00:07.030Z,3.10
2023-07-21T23:10:06.803Z,4.11
2023-07-21T23:20:06.302Z,2.10
2023-07-21T23:30:05.208Z,2.60
2023-07-21T23:40:07.926Z,3.52
2023-07-21T23:50:08.217Z,3.02
